Time;durP1;ratioP1;P1;durP2;ratioP2;P2;SDS_P1;SDS_P2;PMS_P1;PMS_P2;Temp;Humidity;BMP_temperature;BMP_pressure;BME280_temperature;BME280_humidity;BME280_pressure;Samples;Min_cycle;Max_cycle;Signal;HPM_P1;HPM_P2
2022/10/15 00:01:46;;;;;;;10.15;5.10;;;;;;;12.57;100.00;97782.66;5062501;28;20056;-91
2022/10/15 00:04:24;;;;;;;9.68;5.38;;;;;;;12.50;100.00;97779.53;5063096;28;20024;-93
2022/10/15 00:06:50;;;;;;;12.43;5.28;;;;;;;12.54;100.00;97796.28;5058051;28;20024;-93
2022/10/15 00:09:15;;;;;;;14.23;5.40;;;;;;;12.54;100.00;97798.97;5060386;28;20028;-92
2022/10/15 00:11:41;;;;;;;9.48;5.38;;;;;;;12.62;100.00;97797.50;5094946;28;20032;-92
2022/10/15 00:14:06;;;;;;;9.73;5.50;;;;;;;12.64;100.00;97805.47;5077761;28;20554;-90
2022/10/15 00:16:32;;;;;;;10.73;5.43;;;;;;;12.73;100.00;97821.81;5072390;28;20454;-91
2022/10/15 00:18:58;;;;;;;14.30;5.57;;;;;;;12.67;100.00;97807.94;5075289;28;20040;-92
2022/10/15 00:21:24;;;;;;;26.75;10.95;;;;;;;12.64;100.00;97805.47;5061154;28;20066;-91
2022/10/15 00:23:50;;;;;;;18.38;8.98;;;;;;;12.52;100.00;97797.25;5056572;28;20020;-91
2022/10/15 00:26:20;;;;;;;24.05;10.10;;;;;;;12.56;100.00;97802.41;5064821;28;20020;-91
2022/10/15 00:28:46;;;;;;;23.63;10.30;;;;;;;12.65;100.00;97823.28;5073351;28;20031;-91
2022/10/15 00:31:14;;;;;;;33.08;11.00;;;;;;;12.59;100.00;97811.13;5073716;28;20028;-92
2022/10/15 00:33:44;;;;;;;19.92;11.35;;;;;;;12.55;100.00;97816.81;5078549;28;20020;-90
2022/10/15 00:36:30;;;;;;;20.88;10.20;;;;;;;12.61;100.00;97825.31;5075037;28;20025;-91
2022/10/15 00:38:56;;;;;;;18.40;10.20;;;;;;;12.69;100.00;97814.94;5057151;28;20020;-92
2022/10/15 00:41:28;;;;;;;19.15;9.63;;;;;;;12.75;100.00;97821.72;5074503;28;20090;-91
2022/10/15 00:43:56;;;;;;;14.70;8.50;;;;;;;12.74;100.00;97811.94;5066464;28;20123;-92
2022/10/15 00:46:30;;;;;;;18.33;9.70;;;;;;;12.78;100.00;97813.44;5061015;28;20016;-91
2022/10/15 00:49:34;;;;;;;19.27;9.65;;;;;;;12.81;100.00;97808.75;5071341;28;20024;-91
2022/10/15 00:52:07;;;;;;;18.80;8.75;;;;;;;12.69;100.00;97798.81;5061260;28;20048;-91
2022/10/15 00:54:55;;;;;;;17.15;8.13;;;;;;;12.81;100.00;97802.50;5063627;28;20021;-92
2022/10/15 00:57:21;;;;;;;18.67;7.40;;;;;;;12.89;100.00;97801.03;5058248;28;20032;-91
2022/10/15 00:59:53;;;;;;;14.05;6.70;;;;;;;12.99;100.00;97796.75;5058459;28;20028;-91
2022/10/15 01:02:19;;;;;;;12.73;6.45;;;;;;;13.00;100.00;97792.25;5057700;28;20031;-92
2022/10/15 01:04:45;;;;;;;13.70;6.85;;;;;;;12.96;100.00;97794.28;5057758;28;20560;-91
2022/10/15 01:07:11;;;;;;;13.50;6.75;;;;;;;13.01;100.00;97800.19;5072402;28;20024;-92
2022/10/15 01:09:37;;;;;;;17.73;8.60;;;;;;;12.91;100.00;97787.50;5057319;28;20096;-92
2022/10/15 01:12:05;;;;;;;17.77;9.00;;;;;;;12.93;100.00;97793.63;5066373;28;20035;-91
2022/10/15 01:14:46;;;;;;;26.88;8.95;;;;;;;13.00;100.00;97808.38;5044895;28;20478;-92
2022/10/15 01:17:31;;;;;;;22.67;9.02;;;;;;;13.00;100.00;97806.56;5096849;28;20066;-91
2022/10/15 01:20:23;;;;;;;19.98;9.75;;;;;;;12.94;100.00;97806.09;5085027;28;20035;-91
2022/10/15 01:23:26;;;;;;;19.50;10.02;;;;;;;13.03;100.00;97824.28;5080536;28;20031;-92
2022/10/15 01:26:29;;;;;;;21.90;9.95;;;;;;;13.01;100.00;97810.94;5073792;28;20105;-92
2022/10/15 01:29:03;;;;;;;18.05;9.65;;;;;;;13.06;100.00;97818.69;5087407;28;20046;-91
2022/10/15 01:31:40;;;;;;;21.48;10.60;;;;;;;12.93;100.00;97815.09;5068501;28;20389;-90
2022/10/15 01:34:27;;;;;;;19.58;10.55;;;;;;;12.92;100.00;97822.28;5072790;28;20468;-89
2022/10/15 01:36:57;;;;;;;27.38;12.95;;;;;;;12.79;100.00;97812.50;5056940;28;20525;-91
2022/10/15 01:39:27;;;;;;;23.95;12.65;;;;;;;12.79;100.00;97816.06;5073963;28;20074;-91
2022/10/15 01:42:30;;;;;;;27.17;13.70;;;;;;;12.73;100.00;97824.50;5059993;28;20052;-91
2022/10/15 01:45:10;;;;;;;24.27;13.30;;;;;;;12.70;100.00;97811.28;5059341;28;20033;-92
2022/10/15 01:47:50;;;;;;;30.95;14.00;;;;;;;12.77;100.00;97817.09;5064430;28;20065;-92
2022/10/15 01:50:18;;;;;;;30.60;13.73;;;;;;;12.81;100.00;97816.81;5072750;28;20050;-92
2022/10/15 01:52:44;;;;;;;24.92;13.35;;;;;;;12.85;100.00;97820.16;5071037;28;20384;-92
2022/10/15 01:55:14;;;;;;;28.23;12.95;;;;;;;12.86;100.00;97825.41;5073479;28;20085;-92
2022/10/15 01:57:41;;;;;;;25.27;13.13;;;;;;;12.78;100.00;97810.78;5085474;28;20046;-93
2022/10/15 02:00:07;;;;;;;23.60;12.05;;;;;;;12.92;100.00;97830.34;5076718;28;20020;-92
2022/10/15 02:02:33;;;;;;;30.13;12.32;;;;;;;13.01;100.00;97828.91;5069949;28;20028;-92
2022/10/15 02:04:59;;;;;;;27.90;11.93;;;;;;;12.99;100.00;97831.69;5068555;28;20389;-93
2022/10/15 02:07:52;;;;;;;21.38;11.77;;;;;;;12.97;100.00;97835.44;5069225;28;20503;-91
2022/10/15 02:10:32;;;;;;;21.20;11.32;;;;;;;12.88;100.00;97814.56;5087871;28;20537;-91
2022/10/15 02:13:03;;;;;;;20.05;10.65;;;;;;;12.92;100.00;97819.63;5064245;28;20062;-87
2022/10/15 02:15:48;;;;;;;21.33;10.82;;;;;;;12.99;100.00;97823.63;5084122;28;20067;-92
2022/10/15 02:18:31;;;;;;;21.35;10.55;;;;;;;12.88;100.00;97809.19;5083376;28;20077;-92
2022/10/15 02:21:17;;;;;;;20.10;9.05;;;;;;;13.03;100.00;97826.97;5091723;28;20054;-91
2022/10/15 02:23:52;;;;;;;19.83;9.52;;;;;;;13.01;100.00;97826.22;5076805;28;20031;-92
2022/10/15 02:26:19;;;;;;;17.65;8.23;;;;;;;13.03;100.00;97824.28;5072162;28;20032;-92
2022/10/15 02:28:49;;;;;;;13.77;8.25;;;;;;;13.05;100.00;97825.88;5068728;28;20039;-93
2022/10/15 02:31:16;;;;;;;23.38;7.85;;;;;;;13.14;100.00;97840.56;5086411;28;20107;-93
2022/10/15 02:33:43;;;;;;;13.70;7.78;;;;;;;13.08;100.00;97827.53;5066624;28;20032;-92
2022/10/15 02:36:09;;;;;;;16.67;8.10;;;;;;;13.00;100.00;97828.03;5062493;28;20032;-91
2022/10/15 02:38:36;;;;;;;13.25;7.05;;;;;;;13.06;100.00;97837.50;5070570;28;20044;-90
2022/10/15 02:41:02;;;;;;;21.45;7.80;;;;;;;13.07;100.00;97835.69;5064478;28;20066;-92
2022/10/15 02:43:28;;;;;;;15.52;8.25;;;;;;;13.01;100.00;97831.59;5069090;28;20024;-91
2022/10/15 02:45:53;;;;;;;15.68;6.60;;;;;;;12.95;100.00;97821.25;5080179;28;20033;-92
2022/10/15 02:48:19;;;;;;;12.63;6.75;;;;;;;13.02;100.00;97838.66;5059476;28;20033;-91
2022/10/15 02:50:44;;;;;;;19.17;7.45;;;;;;;12.99;100.00;97833.50;5070181;28;20027;-91
2022/10/15 02:53:10;;;;;;;15.02;6.78;;;;;;;12.94;100.00;97830.28;5077087;28;20024;-91
2022/10/15 02:55:35;;;;;;;15.52;7.80;;;;;;;12.96;100.00;97836.38;5076230;28;20020;-90
2022/10/15 02:58:01;;;;;;;20.02;8.60;;;;;;;12.96;100.00;97822.97;5069261;28;20021;-90
2022/10/15 03:00:26;;;;;;;14.02;7.28;;;;;;;13.02;100.00;97839.53;5070213;28;20053;-92
2022/10/15 03:02:52;;;;;;;19.88;7.38;;;;;;;13.08;100.00;97849.03;5071573;28;20035;-91
2022/10/15 03:05:18;;;;;;;13.27;6.75;;;;;;;13.04;100.00;97842.13;5068769;28;20024;-91
2022/10/15 03:07:43;;;;;;;13.32;6.60;;;;;;;13.02;100.00;97838.66;5072734;28;20081;-91
2022/10/15 03:10:09;;;;;;;12.38;6.43;;;;;;;13.06;100.00;97840.19;5093041;28;20423;-90
2022/10/15 03:12:34;;;;;;;11.63;6.75;;;;;;;12.90;100.00;97844.84;5074014;28;20082;-91
2022/10/15 03:15:00;;;;;;;12.05;6.97;;;;;;;12.76;100.00;97844.91;5075375;28;20027;-92
2022/10/15 03:17:25;;;;;;;11.82;6.53;;;;;;;12.85;100.00;97858.59;5061994;28;20123;-91
2022/10/15 03:19:51;;;;;;;15.82;6.13;;;;;;;12.87;100.00;97861.16;5079191;28;20028;-91
2022/10/15 03:22:17;;;;;;;16.58;7.53;;;;;;;12.89;100.00;97848.50;5087528;28;20111;-92
2022/10/15 03:24:42;;;;;;;13.13;6.47;;;;;;;12.93;100.00;97855.38;5069800;28;20028;-91
2022/10/15 03:27:08;;;;;;;13.13;6.32;;;;;;;13.01;100.00;97869.19;5061281;28;20508;-91
2022/10/15 03:29:33;;;;;;;16.08;6.90;;;;;;;12.93;100.00;97850.88;5078265;28;20032;-91
2022/10/15 03:31:59;;;;;;;16.23;6.72;;;;;;;12.93;100.00;97867.00;5078618;28;20063;-92
2022/10/15 03:34:25;;;;;;;12.05;6.82;;;;;;;12.90;100.00;97860.97;5068982;28;20040;-91
2022/10/15 03:36:50;;;;;;;13.65;6.20;;;;;;;12.87;100.00;97862.03;5072144;28;20173;-91
2022/10/15 03:39:16;;;;;;;11.55;5.82;;;;;;;12.87;100.00;97861.16;5070118;28;20027;-91
2022/10/15 03:41:41;;;;;;;16.02;6.10;;;;;;;12.86;100.00;97870.16;5058892;28;20436;-92
2022/10/15 03:44:08;;;;;;;9.68;5.53;;;;;;;12.84;100.00;97872.97;5075448;28;20503;-92
2022/10/15 03:46:34;;;;;;;10.07;5.30;;;;;;;12.67;100.00;97856.25;5066895;28;20020;-92
2022/10/15 03:49:00;;;;;;;11.00;6.13;;;;;;;12.66;100.00;97859.88;5042315;28;20056;-92
2022/10/15 03:51:30;;;;;;;10.85;5.45;;;;;;;12.66;100.00;97867.94;5065321;28;20028;-90
2022/10/15 03:53:55;;;;;;;10.27;5.88;;;;;;;12.67;100.00;97885.78;5069954;28;20518;-91
2022/10/15 03:56:21;;;;;;;13.52;6.20;;;;;;;12.68;100.00;97887.47;5059991;28;20032;-91
2022/10/15 03:58:46;;;;;;;14.15;5.78;;;;;;;12.70;100.00;97891.81;5066095;28;20020;-90
2022/10/15 04:01:15;;;;;;;12.98;6.13;;;;;;;12.75;100.00;97889.69;5064046;28;20016;-91
2022/10/15 04:03:41;;;;;;;16.50;5.75;;;;;;;12.67;100.00;97883.09;5056340;28;20047;-90
2022/10/15 04:06:07;;;;;;;10.60;6.05;;;;;;;12.65;100.00;97887.69;5065618;28;20032;-90
2022/10/15 04:08:32;;;;;;;12.73;5.88;;;;;;;12.60;100.00;97881.75;5075184;28;20457;-91
2022/10/15 04:10:58;;;;;;;15.82;6.25;;;;;;;12.61;100.00;97894.22;5077449;28;20094;-92
2022/10/15 04:13:25;;;;;;;14.23;5.80;;;;;;;12.47;100.00;97874.50;5068556;28;20028;-90
2022/10/15 04:15:51;;;;;;;12.43;5.50;;;;;;;12.51;100.00;97885.91;5057783;28;20086;-91
2022/10/15 04:18:16;;;;;;;14.90;5.95;;;;;;;12.45;100.00;97888.97;5074842;28;20008;-91
2022/10/15 04:20:42;;;;;;;17.67;5.70;;;;;;;12.48;100.00;97892.34;5068639;28;20028;-90
2022/10/15 04:23:08;;;;;;;10.60;5.68;;;;;;;12.30;100.00;97880.09;5063784;28;20457;-93
2022/10/15 04:25:35;;;;;;;9.05;4.97;;;;;;;12.27;100.00;97893.69;5061575;28;20330;-95
2022/10/15 04:28:01;;;;;;;9.85;5.60;;;;;;;12.27;100.00;97898.19;5071067;28;20071;-92
2022/10/15 04:30:26;;;;;;;14.00;5.72;;;;;;;12.11;100.00;97878.66;5079614;28;20024;-92
2022/10/15 04:32:52;;;;;;;10.63;6.65;;;;;;;12.20;100.00;97892.34;5073446;28;20055;-91
2022/10/15 04:35:18;;;;;;;12.85;6.35;;;;;;;12.10;100.00;97898.38;5065937;28;20047;-93
2022/10/15 04:37:43;;;;;;;13.27;5.95;;;;;;;11.99;100.00;97896.38;5066582;28;20052;-92
2022/10/15 04:40:10;;;;;;;11.10;6.32;;;;;;;11.96;100.00;97893.91;5073208;28;20062;-89
2022/10/15 04:42:35;;;;;;;12.80;6.80;;;;;;;12.01;100.00;97909.69;5071997;28;20052;-92
2022/10/15 04:45:01;;;;;;;15.57;6.10;;;;;;;12.11;100.00;97916.19;5078909;28;20035;-92
2022/10/15 04:47:26;;;;;;;11.85;5.28;;;;;;;12.23;100.00;97927.03;5079504;28;20016;-91
2022/10/15 04:49:52;;;;;;;14.98;5.72;;;;;;;12.17;100.00;97919.38;5071426;28;20110;-91
2022/10/15 04:52:17;;;;;;;10.88;6.75;;;;;;;12.04;100.00;97913.03;5058672;28;20412;-91
2022/10/15 04:54:43;;;;;;;11.43;5.13;;;;;;;12.05;100.00;97922.81;5064200;28;20062;-91
2022/10/15 04:57:08;;;;;;;11.32;5.15;;;;;;;12.09;100.00;97926.19;5065100;28;20504;-91
2022/10/15 04:59:34;;;;;;;11.13;5.40;;;;;;;12.19;100.00;97936.22;5078712;28;20598;-91
2022/10/15 05:02:00;;;;;;;11.23;5.25;;;;;;;11.93;100.00;97905.63;5078729;28;20150;-91
2022/10/15 05:04:25;;;;;;;12.90;5.65;;;;;;;12.03;100.00;97918.50;5078748;28;20035;-91
2022/10/15 05:06:51;;;;;;;13.43;6.43;;;;;;;12.22;100.00;97938.72;5075510;28;20189;-91
2022/10/15 05:09:16;;;;;;;10.45;5.60;;;;;;;12.18;100.00;97934.47;5056623;28;20032;-90
2022/10/15 05:11:42;;;;;;;11.80;4.95;;;;;;;12.26;100.00;97934.88;5072156;28;20028;-89
2022/10/15 05:14:07;;;;;;;15.73;5.13;;;;;;;12.32;100.00;97939.00;5078664;28;20081;-91
2022/10/15 05:16:33;;;;;;;9.50;5.20;;;;;;;12.37;100.00;97943.09;5078962;28;20142;-91
2022/10/15 05:19:04;;;;;;;10.65;5.57;;;;;;;12.42;100.00;97935.66;5061251;28;20032;-91
2022/10/15 05:21:31;;;;;;;13.27;5.10;;;;;;;12.47;100.00;97946.94;5066839;28;20039;-75
2022/10/15 05:23:58;;;;;;;12.10;5.60;;;;;;;12.55;100.00;97961.72;5068617;28;20499;-76
2022/10/15 05:26:25;;;;;;;13.88;6.13;;;;;;;12.59;100.00;97957.84;5086588;28;20067;-79
2022/10/15 05:28:51;;;;;;;11.70;6.25;;;;;;;12.64;100.00;97948.56;5092623;28;20035;-79
2022/10/15 05:31:21;;;;;;;14.88;7.28;;;;;;;12.72;100.00;97956.13;5090274;28;20024;-81
2022/10/15 05:33:48;;;;;;;14.63;6.85;;;;;;;12.68;100.00;97952.75;5067805;28;20120;-86
2022/10/15 05:36:18;;;;;;;37.33;17.02;;;;;;;12.70;100.00;97948.19;5070402;28;20489;-91
2022/10/15 05:38:50;;;;;;;13.52;6.60;;;;;;;12.66;100.00;97956.50;5093962;28;20032;-92
2022/10/15 05:41:17;;;;;;;12.02;6.97;;;;;;;12.62;100.00;97955.84;5076916;28;20109;-89
2022/10/15 05:43:44;;;;;;;19.35;6.90;;;;;;;12.67;100.00;97955.56;5071969;28;20028;-87
2022/10/15 05:46:10;;;;;;;10.82;6.10;;;;;;;12.74;100.00;97951.50;5074761;28;20111;-77
2022/10/15 05:48:36;;;;;;;10.15;5.97;;;;;;;12.86;100.00;97972.19;5080403;28;20501;-76
2022/10/15 05:51:06;;;;;;;12.82;5.90;;;;;;;12.85;100.00;97965.13;5077575;28;20020;-75
2022/10/15 05:53:31;;;;;;;9.52;5.20;;;;;;;12.99;100.00;97965.06;5055975;28;20385;-76
2022/10/15 05:55:57;;;;;;;10.73;6.63;;;;;;;13.09;100.00;97968.06;5088702;28;20035;-83
2022/10/15 05:58:28;;;;;;;22.33;6.15;;;;;;;13.40;100.00;97974.00;5048305;28;20093;-79
2022/10/15 06:00:59;;;;;;;10.38;5.20;;;;;;;13.62;100.00;97976.13;5060168;28;20027;-80
2022/10/15 06:03:24;;;;;;;9.15;4.70;;;;;;;13.88;100.00;97975.22;5075669;28;20442;-76
2022/10/15 06:05:50;;;;;;;16.73;5.90;;;;;;;14.32;100.00;97982.91;5070408;28;20069;-76
2022/10/15 06:08:16;;;;;;;12.57;4.95;;;;;;;15.47;100.00;98000.63;5080651;28;20078;-80
2022/10/15 06:10:42;;;;;;;9.90;4.78;;;;;;;15.77;94.76;97967.81;5065083;28;20112;-78
2022/10/15 06:13:08;;;;;;;8.82;4.93;;;;;;;16.46;89.84;97967.72;5081229;28;20052;-80
2022/10/15 06:15:34;;;;;;;10.80;5.18;;;;;;;16.94;86.09;97954.03;5070943;28;20589;-79
2022/10/15 06:18:00;;;;;;;13.90;5.53;;;;;;;16.53;86.67;97919.50;5074287;28;20086;-79
2022/10/15 06:20:26;;;;;;;15.63;6.95;;;;;;;15.87;89.87;97904.09;5079140;28;20031;-80
2022/10/15 06:22:58;;;;;;;9.27;4.57;;;;;;;16.33;89.22;97921.09;5072123;28;20446;-79
2022/10/15 06:25:25;;;;;;;8.23;4.60;;;;;;;17.58;82.96;97936.94;5078733;28;20033;-80
2022/10/15 06:27:50;;;;;;;10.02;4.70;;;;;;;17.94;79.29;97916.72;5076081;28;20024;-79
2022/10/15 06:30:16;;;;;;;11.45;3.88;;;;;;;16.64;82.85;97879.03;5060728;28;20413;-77
2022/10/15 06:32:52;;;;;;;8.70;4.35;;;;;;;16.81;84.73;97902.81;5082818;28;20062;-76
2022/10/15 06:35:18;;;;;;;15.68;6.38;;;;;;;16.83;83.13;97895.44;5081359;28;20019;-81
2022/10/15 06:37:44;;;;;;;7.53;4.47;;;;;;;16.75;83.02;97885.25;5074547;28;20106;-80
2022/10/15 06:40:10;;;;;;;11.02;4.50;;;;;;;16.95;82.13;97888.19;5074779;28;20451;-80
2022/10/15 06:42:36;;;;;;;12.93;5.18;;;;;;;16.61;83.73;97890.06;5079156;28;20052;-81
2022/10/15 06:45:02;;;;;;;10.38;3.88;;;;;;;16.36;83.88;97872.25;5076209;28;20033;-81
2022/10/15 06:47:28;;;;;;;7.45;3.97;;;;;;;16.37;85.46;97887.44;5080398;28;20077;-80
2022/10/15 06:49:54;;;;;;;13.57;4.60;;;;;;;17.15;81.89;97895.50;5074793;28;20024;-81
2022/10/15 06:52:19;;;;;;;9.57;4.57;;;;;;;18.53;75.88;97916.09;5076555;28;20085;-80
2022/10/15 06:54:45;;;;;;;8.85;4.10;;;;;;;20.06;69.61;97904.72;5078190;28;20395;-81
2022/10/15 06:57:11;;;;;;;14.68;4.22;;;;;;;21.22;63.95;97887.03;5060995;28;20126;-81
2022/10/15 06:59:36;;;;;;;7.13;4.00;;;;;;;21.91;60.14;97868.16;5089873;28;20024;-82
2022/10/15 07:02:02;;;;;;;8.93;3.70;;;;;;;22.04;58.62;97853.13;5071615;28;20020;-81
2022/10/15 07:04:27;;;;;;;5.32;3.58;;;;;;;22.77;56.54;97844.53;5076773;28;20455;-79
2022/10/15 07:06:53;;;;;;;8.20;4.35;;;;;;;23.22;54.00;97818.59;5072192;28;20464;-80
2022/10/15 07:09:19;;;;;;;8.55;4.13;;;;;;;23.84;52.95;97829.13;5077247;28;20036;-81
2022/10/15 07:11:45;;;;;;;12.30;4.35;;;;;;;24.76;49.40;97818.56;5065870;28;20615;-81
2022/10/15 07:14:10;;;;;;;7.38;2.95;;;;;;;24.93;47.70;97797.47;5076649;28;20052;-81
2022/10/15 07:16:38;;;;;;;5.40;3.28;;;;;;;23.81;50.12;97775.66;5052941;28;20036;-80
2022/10/15 07:19:04;;;;;;;8.38;3.42;;;;;;;24.60;48.72;97791.25;5090781;28;20023;-82
2022/10/15 07:21:29;;;;;;;8.32;3.58;;;;;;;25.17;46.98;97780.88;5074192;28;20036;-80
2022/10/15 07:23:55;;;;;;;11.10;2.97;;;;;;;25.10;46.92;97779.94;5056938;28;20051;-81
2022/10/15 07:26:20;;;;;;;5.30;2.75;;;;;;;24.80;46.84;97776.97;5082160;28;20028;-81
2022/10/15 07:28:46;;;;;;;6.05;3.58;;;;;;;24.27;48.10;97772.19;5063198;28;20043;-80
2022/10/15 07:31:11;;;;;;;7.00;3.67;;;;;;;23.31;50.38;97756.69;5059394;28;20027;-80
2022/10/15 07:33:37;;;;;;;9.05;3.97;;;;;;;22.56;51.44;97749.47;5081660;28;20118;-81
2022/10/15 07:36:05;;;;;;;7.03;3.75;;;;;;;21.12;54.54;97752.91;5072718;28;20107;-81
2022/10/15 07:38:30;;;;;;;8.82;4.20;;;;;;;20.27;57.33;97759.53;5069599;28;20484;-80
2022/10/15 07:40:58;;;;;;;10.00;3.75;;;;;;;19.82;59.48;97759.41;5071161;28;20118;-80
2022/10/15 07:43:23;;;;;;;6.03;3.30;;;;;;;19.42;60.14;97761.47;5073521;28;20028;-82
2022/10/15 07:45:49;;;;;;;8.20;3.88;;;;;;;20.29;59.40;97790.16;5073199;28;20032;-81
2022/10/15 07:48:15;;;;;;;13.60;3.95;;;;;;;22.51;54.09;97815.44;5071043;28;20024;-82
2022/10/15 07:50:40;;;;;;;8.20;4.18;;;;;;;21.51;54.19;97779.63;5106089;27;20028;-81
2022/10/15 07:53:06;;;;;;;11.35;4.25;;;;;;;19.89;58.46;97754.25;5078005;28;20027;-81
2022/10/15 07:55:31;;;;;;;6.97;3.60;;;;;;;19.25;60.10;97759.47;5051865;28;20036;-82
2022/10/15 07:57:57;;;;;;;5.18;3.63;;;;;;;18.12;63.92;97752.66;5064505;28;20035;-80
2022/10/15 08:00:23;;;;;;;6.22;3.88;;;;;;;18.19;64.34;97761.09;5087230;28;20429;-75
2022/10/15 08:02:49;;;;;;;7.65;3.47;;;;;;;18.38;64.32;97769.31;5066259;28;20032;-76
2022/10/15 08:05:14;;;;;;;9.55;4.05;;;;;;;17.68;66.37;97763.84;5075730;28;20032;-75
2022/10/15 08:07:40;;;;;;;5.88;3.58;;;;;;;17.12;68.48;97756.03;5078090;28;20518;-74
2022/10/15 08:10:08;;;;;;;8.73;4.38;;;;;;;17.24;69.15;97770.34;5069376;28;20024;-74
2022/10/15 08:12:34;;;;;;;12.43;4.28;;;;;;;18.43;66.07;97802.25;5052677;28;20803;-75
2022/10/15 08:15:00;;;;;;;7.57;3.80;;;;;;;20.73;58.59;97815.69;5069518;28;20107;-74
2022/10/15 08:17:26;;;;;;;6.00;3.90;;;;;;;20.06;59.01;97779.78;5072105;28;20132;-75
2022/10/15 08:19:51;;;;;;;6.22;3.63;;;;;;;20.71;58.12;97798.66;5054043;28;20035;-75
2022/10/15 08:22:17;;;;;;;14.30;3.47;;;;;;;22.75;53.18;97831.06;5069963;28;20028;-75
2022/10/15 08:24:42;;;;;;;10.07;3.03;;;;;;;24.87;48.76;97823.66;5059801;28;20032;-75
2022/10/15 08:27:08;;;;;;;6.40;3.60;;;;;;;26.17;44.76;97816.31;5055088;28;20035;-75
2022/10/15 08:29:33;;;;;;;8.52;3.33;;;;;;;27.02;42.53;97780.19;5058254;28;20035;-75
2022/10/15 08:31:59;;;;;;;6.07;2.83;;;;;;;27.39;41.54;97777.25;5084394;28;20032;-75
2022/10/15 08:34:25;;;;;;;5.90;3.25;;;;;;;26.16;43.05;97765.22;5089561;28;20032;-75
2022/10/15 08:36:50;;;;;;;6.47;3.25;;;;;;;26.75;42.01;97763.34;5073270;28;20040;-74
2022/10/15 08:39:16;;;;;;;5.75;2.90;;;;;;;25.97;41.59;97738.31;5079152;28;20066;-75
2022/10/15 08:41:47;;;;;;;6.03;3.03;;;;;;;25.27;43.29;97737.69;5089234;28;20397;-76
2022/10/15 08:44:17;;;;;;;8.27;4.20;;;;;;;23.48;46.67;97719.34;5072591;28;20097;-75
2022/10/15 08:46:45;;;;;;;9.90;4.00;;;;;;;22.28;49.78;97718.00;5085511;28;20009;-75
2022/10/15 08:49:44;;;;;;;12.85;3.53;;;;;;;21.50;50.87;97712.56;5072470;28;20028;-76
2022/10/15 08:52:25;;;;;;;5.43;3.38;;;;;;;21.12;52.46;97725.69;5085967;28;20092;-76
2022/10/15 08:54:51;;;;;;;6.30;3.50;;;;;;;22.23;50.77;97739.44;5071338;28;20479;-74
2022/10/15 08:57:29;;;;;;;6.10;3.47;;;;;;;23.32;48.31;97749.34;5067147;28;20380;-75
2022/10/15 09:00:16;;;;;;;5.82;3.35;;;;;;;20.92;51.96;97697.75;5096149;28;20023;-75
2022/10/15 09:02:50;;;;;;;4.90;3.20;;;;;;;22.38;49.91;97754.16;5075852;28;20108;-76
2022/10/15 09:05:33;;;;;;;5.88;2.95;;;;;;;23.74;47.03;97763.72;5066724;28;20032;-75
2022/10/15 09:08:07;;;;;;;9.38;3.20;;;;;;;25.05;44.18;97761.28;5070912;28;20059;-75
2022/10/15 09:10:43;;;;;;;5.82;3.35;;;;;;;25.06;44.06;97746.56;5071666;28;20479;-75
2022/10/15 09:13:47;;;;;;;9.55;3.65;;;;;;;26.30;42.01;97758.91;5066180;28;20118;-75
2022/10/15 09:16:23;;;;;;;8.23;3.78;;;;;;;26.05;42.07;97731.91;5021000;28;20143;-75
2022/10/15 09:18:51;;;;;;;7.43;3.40;;;;;;;26.81;41.03;97728.81;5038001;28;20104;-75
2022/10/15 09:21:18;;;;;;;6.85;2.70;;;;;;;27.32;40.53;97738.69;5037516;28;20094;-75
2022/10/15 09:23:44;;;;;;;7.57;3.33;;;;;;;28.75;37.78;97744.75;5095917;28;20549;-76
2022/10/15 09:26:19;;;;;;;6.20;2.88;;;;;;;27.32;39.35;97702.13;5095578;28;20040;-76
2022/10/15 09:28:45;;;;;;;4.88;2.92;;;;;;;26.75;39.91;97707.59;5074173;28;20085;-76
2022/10/15 09:31:13;;;;;;;7.95;2.88;;;;;;;28.49;37.68;97737.16;5076762;28;20032;-75
2022/10/15 09:33:44;;;;;;;4.95;2.97;;;;;;;28.86;36.88;97716.63;5061259;28;20114;-75
2022/10/15 09:36:12;;;;;;;5.67;2.77;;;;;;;27.33;38.63;97693.69;5081105;28;20441;-75
2022/10/15 09:38:53;;;;;;;5.60;2.25;;;;;;;24.83;42.10;97681.84;5074963;28;20047;-75
2022/10/15 09:41:30;;;;;;;6.38;2.90;;;;;;;23.82;44.90;97689.06;5076254;28;20098;-76
2022/10/15 09:43:57;;;;;;;6.45;2.95;;;;;;;23.18;46.55;97691.66;5072114;28;20475;-75
2022/10/15 09:46:23;;;;;;;5.35;2.92;;;;;;;25.17;42.54;97716.03;5073595;28;20027;-74
2022/10/15 09:49:08;;;;;;;6.13;2.88;;;;;;;24.06;44.17;97681.66;5095391;28;20023;-74
2022/10/15 09:51:40;;;;;;;3.95;2.65;;;;;;;23.76;44.78;97666.03;5078221;28;20127;-75
2022/10/15 09:54:26;;;;;;;3.10;2.47;;;;;;;24.31;43.63;97689.78;5082640;28;20035;-75
2022/10/15 09:56:53;;;;;;;6.82;2.45;;;;;;;26.18;41.71;97715.69;5074851;28;20036;-74
2022/10/15 09:59:20;;;;;;;4.80;2.30;;;;;;;26.00;40.92;97696.81;5065879;28;20031;-75
2022/10/15 10:02:01;;;;;;;3.90;2.30;;;;;;;25.77;41.07;97696.91;5073226;28;20090;-75
2022/10/15 10:04:32;;;;;;;7.63;2.78;;;;;;;25.38;41.52;97677.00;5071883;28;20174;-76
2022/10/15 10:07:00;;;;;;;8.82;2.80;;;;;;;26.55;39.68;97684.53;5079508;28;20021;-75
2022/10/15 10:09:38;;;;;;;9.57;2.78;;;;;;;26.62;39.18;97669.84;5071624;28;20021;-76
2022/10/15 10:12:06;;;;;;;3.72;2.80;;;;;;;24.84;42.30;97670.75;5080173;28;20028;-75
2022/10/15 10:14:33;;;;;;;8.00;3.40;;;;;;;24.62;42.85;97677.00;5054815;28;20089;-75
2022/10/15 10:17:19;;;;;;;3.92;2.50;;;;;;;25.65;41.02;97692.91;5057778;28;20043;-75
2022/10/15 10:20:03;;;;;;;3.78;2.60;;;;;;;25.48;40.56;97676.75;5083141;28;20465;-75
2022/10/15 10:22:29;;;;;;;5.78;3.22;;;;;;;25.96;40.83;97683.69;5074811;28;20119;-75
2022/10/15 10:24:55;;;;;;;3.83;2.53;;;;;;;26.75;38.97;97682.88;5061686;28;20051;-78
2022/10/15 10:27:27;;;;;;;4.72;2.70;;;;;;;27.19;38.32;97680.88;5081114;28;20066;-76
2022/10/15 10:29:58;;;;;;;4.25;2.70;;;;;;;26.20;39.53;97669.72;5065100;28;20093;-75
2022/10/15 10:32:29;;;;;;;5.45;2.42;;;;;;;25.61;40.54;97653.19;5056916;28;20105;-76
2022/10/15 10:34:55;;;;;;;3.90;2.20;;;;;;;23.59;43.42;97640.66;5054356;28;20206;-75
2022/10/15 10:37:21;;;;;;;6.00;2.60;;;;;;;22.79;45.17;97649.69;5054666;28;20119;-76
2022/10/15 10:39:52;;;;;;;5.82;2.80;;;;;;;22.88;45.74;97670.50;5062711;28;20399;-76
2022/10/15 10:42:20;;;;;;;6.53;2.77;;;;;;;23.77;44.85;97686.03;5057681;28;20499;-74
2022/10/15 10:44:46;;;;;;;6.90;2.58;;;;;;;25.37;42.13;97697.22;5088786;28;20043;-75
2022/10/15 10:47:16;;;;;;;3.08;2.17;;;;;;;24.85;41.65;97671.59;5089840;28;20102;-75
2022/10/15 10:49:53;;;;;;;4.65;2.80;;;;;;;24.03;43.24;97657.41;5063570;28;20415;-74
2022/10/15 10:52:33;;;;;;;4.55;2.47;;;;;;;23.95;42.92;97646.53;5050656;28;20032;-75
2022/10/15 10:55:11;;;;;;;3.90;2.50;;;;;;;23.73;44.05;97669.13;5054007;28;20107;-75
2022/10/15 10:57:49;;;;;;;7.22;3.30;;;;;;;23.34;44.97;97668.13;5070941;28;20082;-74
2022/10/15 11:00:22;;;;;;;5.47;2.90;;;;;;;22.78;46.18;97656.16;5054106;28;20523;-75
2022/10/15 11:02:48;;;;;;;5.47;3.35;;;;;;;22.63;46.36;97663.25;5073946;28;20032;-75
2022/10/15 11:05:27;;;;;;;25.73;4.45;;;;;;;22.14;47.43;97645.91;5077633;28;20036;-76
2022/10/15 11:08:14;;;;;;;8.65;2.33;;;;;;;22.05;47.50;97658.66;5053849;28;20032;-76
2022/10/15 11:11:18;;;;;;;6.30;2.90;;;;;;;21.83;47.96;97655.59;5070571;28;20024;-76
2022/10/15 11:13:47;;;;;;;5.13;2.25;;;;;;;21.05;nan;97655.56;5052967;28;20020;-76
2022/10/15 11:16:19;;;;;;;4.70;2.50;;;;;;;20.98;50.67;97678.09;5071577;28;20147;-76
2022/10/15 11:18:52;;;;;;;15.88;4.00;;;;;;;20.73;51.36;97677.03;5070396;28;20037;-75
2022/10/15 11:21:24;;;;;;;14.68;3.53;;;;;;;20.81;50.94;97678.97;5055956;28;20024;-76
2022/10/15 11:23:55;;;;;;;3.10;2.40;;;;;;;20.36;49.97;97660.84;5065034;28;20032;-76
2022/10/15 11:26:21;;;;;;;3.95;2.58;;;;;;;20.42;51.41;97679.25;5074534;28;20357;-76
2022/10/15 11:29:13;;;;;;;3.65;2.30;;;;;;;20.98;50.13;97694.41;5085214;28;20039;-76
2022/10/15 11:32:22;;;;;;;6.47;1.80;;;;;;;21.04;48.38;97672.88;5071466;28;20028;-75
2022/10/15 11:35:23;;;;;;;3.17;2.00;;;;;;;23.43;44.42;97691.69;5036635;28;20115;-76
2022/10/15 11:37:55;;;;;;;5.90;2.30;;;;;;;25.93;41.58;97716.94;5082174;28;20028;-76